createdAt,value
2017-09-26T00:00:42.718Z,21.60
2017-09-26T00:03:10.244Z,19.95
2017-09-26T00:05:37.831Z,21.33
2017-09-26T00:08:06.160Z,20.25
2017-09-26T00:10:33.668Z,18.42
2017-09-26T00:13:01.758Z,18.98
2017-09-26T00:15:29.389Z,20.52
2017-09-26T00:17:56.979Z,19.48
2017-09-26T00:20:24.520Z,19.33
2017-09-26T00:22:52.130Z,19.73
2017-09-26T00:25:19.674Z,20.05
2017-09-26T00:27:47.975Z,19.80
2017-09-26T00:30:15.493Z,20.48
2017-09-26T00:32:43.086Z,19.73
2017-09-26T00:35:10.606Z,22.27
2017-09-26T00:37:38.141Z,21.27
2017-09-26T00:40:05.659Z,23.75
2017-09-26T00:42:33.196Z,22.02
2017-09-26T00:45:00.713Z,21.92
2017-09-26T00:47:28.236Z,22.33
2017-09-26T00:49:56.509Z,21.17
2017-09-26T00:52:24.797Z,22.77
2017-09-26T00:54:52.309Z,22.52
2017-09-26T00:57:19.849Z,23.38
2017-09-26T00:59:47.412Z,23.10
2017-09-26T01:02:15.709Z,21.45
2017-09-26T01:04:46.981Z,21.23
2017-09-26T01:07:30.923Z,22.17
2017-09-26T01:09:58.425Z,22.58
2017-09-26T01:12:25.956Z,21.62
2017-09-26T01:14:54.234Z,21.73
2017-09-26T01:17:22.529Z,22.95
2017-09-26T01:19:50.036Z,21.35
2017-09-26T01:22:17.565Z,20.73
2017-09-26T01:24:45.072Z,23.20
2017-09-26T01:27:12.597Z,22.60
2017-09-26T01:29:40.113Z,23.05
2017-09-26T01:32:08.396Z,21.87
2017-09-26T01:34:35.896Z,21.70
2017-09-26T01:37:03.421Z,22.92
2017-09-26T01:39:30.934Z,22.45
2017-09-26T01:41:58.461Z,23.40
2017-09-26T01:44:25.972Z,22.37
2017-09-26T01:46:53.584Z,24.35
2017-09-26T01:49:21.090Z,22.98
2017-09-26T01:51:48.620Z,22.65
2017-09-26T01:54:16.133Z,22.23
2017-09-26T01:56:43.659Z,21.00
2017-09-26T01:59:21.992Z,23.10
2017-09-26T02:01:49.522Z,23.20
2017-09-26T02:04:17.029Z,22.52
2017-09-26T02:06:44.553Z,22.48
2017-09-26T02:09:12.064Z,23.38
2017-09-26T02:11:39.584Z,23.85
2017-09-26T02:14:07.092Z,24.25
2017-09-26T02:16:34.620Z,25.62
2017-09-26T02:19:02.893Z,26.12
2017-09-26T02:21:31.182Z,22.77
2017-09-26T02:23:58.705Z,23.87
2017-09-26T02:26:26.231Z,24.90
2017-09-26T02:28:53.723Z,23.23
2017-09-26T02:31:21.252Z,24.50
2017-09-26T02:33:48.747Z,25.55
2017-09-26T02:36:16.272Z,23.92
2017-09-26T02:38:43.780Z,22.65
2017-09-26T02:41:12.080Z,22.25
2017-09-26T02:43:39.592Z,23.35
2017-09-26T02:46:07.120Z,22.75
2017-09-26T02:48:34.615Z,21.92
2017-09-26T02:51:02.141Z,23.38
2017-09-26T02:53:31.585Z,22.33
2017-09-26T02:55:59.120Z,22.25
2017-09-26T02:58:26.638Z,21.53
2017-09-26T03:00:54.168Z,22.05
2017-09-26T03:03:21.684Z,22.98
2017-09-26T03:05:49.218Z,23.08
2017-09-26T03:08:16.724Z,24.00
2017-09-26T03:10:44.233Z,22.60
2017-09-26T03:13:11.770Z,23.80
2017-09-26T03:15:39.281Z,22.15
2017-09-26T03:18:06.809Z,22.58
2017-09-26T03:20:35.068Z,23.20
2017-09-26T03:23:03.392Z,21.67
2017-09-26T03:25:30.887Z,20.75
2017-09-26T03:27:58.403Z,21.70
2017-09-26T03:30:25.916Z,22.55
2017-09-26T03:32:53.428Z,23.23
2017-09-26T03:35:20.931Z,21.95
2017-09-26T03:37:48.448Z,23.05
2017-09-26T03:40:15.947Z,23.55
2017-09-26T03:42:43.456Z,22.33
2017-09-26T03:45:10.956Z,23.38
2017-09-26T03:47:38.483Z,21.20
2017-09-26T03:50:05.979Z,22.33
2017-09-26T03:52:33.500Z,24.65
2017-09-26T03:55:00.995Z,20.80
2017-09-26T03:57:28.510Z,22.80
2017-09-26T03:59:56.008Z,22.52
2017-09-26T04:02:23.532Z,23.38
2017-09-26T04:04:51.803Z,22.00
2017-09-26T04:07:19.324Z,24.40
2017-09-26T04:09:46.815Z,22.75
2017-09-26T04:12:14.329Z,23.77
2017-09-26T04:14:41.823Z,25.30
2017-09-26T04:17:10.123Z,25.30
2017-09-26T04:19:37.622Z,23.52
2017-09-26T04:22:05.144Z,26.60
2017-09-26T04:24:32.640Z,25.20
2017-09-26T04:27:00.159Z,26.62
2017-09-26T04:29:27.716Z,26.95
2017-09-26T04:31:55.236Z,25.30
2017-09-26T04:34:22.728Z,25.75
2017-09-26T04:36:50.253Z,27.27
2017-09-26T04:39:17.755Z,26.60
2017-09-26T04:41:45.276Z,27.80
2017-09-26T04:44:12.777Z,28.70
2017-09-26T04:46:40.305Z,26.75
2017-09-26T04:49:08.592Z,26.65
2017-09-26T04:51:36.883Z,27.00
2017-09-26T04:54:04.384Z,31.62
2017-09-26T04:56:31.960Z,29.08
2017-09-26T04:58:59.439Z,29.50
2017-09-26T05:01:26.957Z,29.37
2017-09-26T05:03:54.463Z,29.35
2017-09-26T05:06:22.754Z,28.92
2017-09-26T05:08:51.035Z,29.63
2017-09-26T05:11:18.557Z,28.75
2017-09-26T05:13:46.061Z,28.85
2017-09-26T05:16:13.577Z,28.50
2017-09-26T05:18:41.093Z,29.40
2017-09-26T05:21:08.620Z,30.48
2017-09-26T05:23:36.889Z,32.33
2017-09-26T05:26:05.184Z,34.20
2017-09-26T05:28:33.453Z,33.35
2017-09-26T05:31:02.100Z,29.95
2017-09-26T05:33:29.613Z,30.85
2017-09-26T05:35:57.140Z,30.10
2017-09-26T05:38:24.648Z,31.17
2017-09-26T05:40:52.185Z,31.27
2017-09-26T05:43:27.669Z,29.27
2017-09-26T05:45:55.199Z,29.70
2017-09-26T05:48:22.716Z,33.25
2017-09-26T05:50:50.256Z,33.42
2017-09-26T05:53:17.768Z,33.03
2017-09-26T05:55:46.070Z,35.20
2017-09-26T05:58:13.585Z,33.40
2017-09-26T06:00:41.104Z,33.97
2017-09-26T06:03:08.628Z,33.45
2017-09-26T06:05:36.205Z,35.97
2017-09-26T06:08:03.841Z,33.45
2017-09-26T06:10:32.137Z,32.45
2017-09-26T06:12:59.652Z,33.42
2017-09-26T06:15:27.188Z,32.40
2017-09-26T06:17:54.697Z,31.55
2017-09-26T06:20:23.002Z,31.42
2017-09-26T06:22:50.503Z,30.95
2017-09-26T06:25:18.052Z,33.50
2017-09-26T06:27:45.570Z,32.20
2017-09-26T06:30:13.101Z,32.83
2017-09-26T06:32:40.619Z,30.02
2017-09-26T06:35:08.156Z,30.25
2017-09-26T06:37:35.679Z,32.90
2017-09-26T06:40:03.983Z,32.27
2017-09-26T06:42:31.495Z,32.50
2017-09-26T06:44:59.022Z,30.60
2017-09-26T06:47:26.550Z,28.75
2017-09-26T06:49:54.852Z,27.80
2017-09-26T06:52:22.361Z,30.45
2017-09-26T06:54:49.894Z,30.03
2017-09-26T06:57:17.406Z,28.27
2017-09-26T06:59:45.695Z,31.80
2017-09-26T07:02:13.209Z,30.62
2017-09-26T07:04:40.746Z,30.85
2017-09-26T07:07:09.015Z,29.63
2017-09-26T07:09:36.557Z,29.37
2017-09-26T07:12:04.065Z,30.40
2017-09-26T07:14:31.600Z,29.33
2017-09-26T07:16:59.116Z,26.63
2017-09-26T07:19:27.415Z,27.40
2017-09-26T07:21:54.913Z,27.00
2017-09-26T07:24:22.438Z,24.57
2017-09-26T07:26:49.989Z,24.30
2017-09-26T07:29:17.532Z,24.90
2017-09-26T07:31:45.808Z,27.10
2017-09-26T07:34:13.306Z,23.90
2017-09-26T07:36:40.829Z,23.60
2017-09-26T07:39:09.110Z,25.13
2017-09-26T07:41:36.641Z,25.70
2017-09-26T07:44:04.156Z,25.67
2017-09-26T07:46:31.686Z,25.27
2017-09-26T07:48:59.963Z,25.20
2017-09-26T07:51:28.253Z,24.00
2017-09-26T07:53:56.532Z,24.17
2017-09-26T07:56:24.825Z,24.80
2017-09-26T07:58:52.329Z,26.07
2017-09-26T08:01:20.030Z,26.40
2017-09-26T08:03:48.575Z,25.83
2017-09-26T08:06:16.371Z,23.70
2017-09-26T08:08:44.915Z,24.40
2017-09-26T08:11:12.443Z,23.37
2017-09-26T08:13:39.954Z,24.30
2017-09-26T08:16:07.488Z,24.90
2017-09-26T08:18:34.993Z,23.63
2017-09-26T08:21:03.293Z,25.07
2017-09-26T08:23:30.799Z,24.40
2017-09-26T08:25:58.324Z,22.47
2017-09-26T08:28:25.832Z,23.33
2017-09-26T08:30:53.391Z,23.23
2017-09-26T08:33:21.317Z,23.40
2017-09-26T08:35:48.851Z,25.40
2017-09-26T08:38:17.129Z,25.17
2017-09-26T08:40:45.426Z,25.70
2017-09-26T08:43:13.700Z,24.17
2017-09-26T08:45:41.229Z,25.57
2017-09-26T08:48:08.732Z,25.70
2017-09-26T08:50:36.257Z,24.10
2017-09-26T08:53:04.538Z,25.73
2017-09-26T08:55:32.824Z,23.10
2017-09-26T08:58:00.404Z,23.47
2017-09-26T09:00:27.929Z,23.37
2017-09-26T09:02:56.205Z,21.67
2017-09-26T09:05:24.504Z,24.10
2017-09-26T09:07:52.008Z,23.10
2017-09-26T09:10:19.548Z,23.27
2017-09-26T09:12:47.045Z,23.63
2017-09-26T09:15:14.569Z,22.57
2017-09-26T09:17:42.076Z,24.77
2017-09-26T09:20:10.364Z,26.40
2017-09-26T09:22:38.642Z,23.43
2017-09-26T09:25:07.856Z,23.60
2017-09-26T09:27:35.364Z,24.47
2017-09-26T09:30:02.882Z,25.90
2017-09-26T09:32:30.394Z,24.80
2017-09-26T09:34:57.926Z,26.67
2017-09-26T09:37:25.427Z,25.20
2017-09-26T09:39:53.726Z,24.03
2017-09-26T09:42:21.237Z,25.40
2017-09-26T09:44:48.766Z,27.37
2017-09-26T09:47:16.270Z,25.37
2017-09-26T09:49:43.789Z,26.00
2017-09-26T09:52:11.293Z,25.40
2017-09-26T09:54:38.828Z,25.53
2017-09-26T09:57:06.331Z,23.53
2017-09-26T09:59:33.860Z,24.70
2017-09-26T10:02:01.356Z,25.20
2017-09-26T10:04:28.903Z,26.07
2017-09-26T10:06:57.187Z,23.27
2017-09-26T10:09:25.480Z,20.27
2017-09-26T10:11:52.989Z,20.03
2017-09-26T10:14:20.516Z,22.33
2017-09-26T10:16:48.023Z,19.33
2017-09-26T10:19:15.764Z,23.93
2017-09-26T10:21:43.264Z,20.40
2017-09-26T10:24:11.561Z,20.00
2017-09-26T10:26:39.068Z,22.30
2017-09-26T10:29:06.597Z,21.73
2017-09-26T10:31:34.108Z,22.40
2017-09-26T10:34:02.406Z,20.90
2017-09-26T10:36:30.673Z,22.10
2017-09-26T10:38:58.964Z,23.30
2017-09-26T10:41:27.240Z,23.47
2017-09-26T10:43:54.765Z,21.70
2017-09-26T10:46:22.275Z,21.80
2017-09-26T10:48:49.788Z,19.73
2017-09-26T10:51:17.293Z,21.10
2017-09-26T10:53:44.820Z,17.83
2017-09-26T10:56:12.332Z,18.10
2017-09-26T10:58:39.866Z,18.60
2017-09-26T11:01:07.380Z,16.90
2017-09-26T11:03:35.124Z,18.17
2017-09-26T11:06:02.634Z,18.53
2017-09-26T11:08:30.953Z,19.83
2017-09-26T11:10:58.459Z,22.87
2017-09-26T11:13:25.985Z,21.97
2017-09-26T11:15:53.488Z,20.90
2017-09-26T11:18:21.777Z,19.10
2017-09-26T11:20:50.035Z,18.60
2017-09-26T11:23:17.564Z,21.53
2017-09-26T11:25:45.083Z,18.90
2017-09-26T11:28:12.605Z,19.30
2017-09-26T11:30:45.897Z,18.67
2017-09-26T11:33:23.785Z,20.63
2017-09-26T11:35:51.300Z,18.00
2017-09-26T11:38:18.833Z,18.00
2017-09-26T11:40:46.664Z,17.70
2017-09-26T11:43:14.220Z,18.80
2017-09-26T11:45:41.965Z,17.33
2017-09-26T11:48:09.520Z,18.83
2017-09-26T11:50:37.011Z,16.40
2017-09-26T11:53:04.535Z,15.03
2017-09-26T11:55:32.032Z,16.07
2017-09-26T11:57:59.556Z,16.10
2017-09-26T12:00:27.064Z,15.33
2017-09-26T12:02:54.589Z,19.97
2017-09-26T12:05:22.098Z,14.50
2017-09-26T12:07:49.730Z,14.60
2017-09-26T12:10:17.264Z,13.40
2017-09-26T12:12:51.243Z,15.00
2017-09-26T12:15:19.511Z,13.50
2017-09-26T12:17:47.791Z,12.30
2017-09-26T12:20:15.296Z,11.97
2017-09-26T12:22:42.821Z,12.70
2017-09-26T12:25:11.089Z,12.70
2017-09-26T12:27:39.367Z,14.00
2017-09-26T12:30:07.628Z,14.60
2017-09-26T12:32:35.133Z,14.50
2017-09-26T12:35:03.217Z,14.50
2017-09-26T12:37:30.756Z,13.77
2017-09-26T12:39:58.274Z,11.97
2017-09-26T12:42:25.809Z,14.50
2017-09-26T12:44:53.316Z,13.03
2017-09-26T12:47:21.573Z,13.80
2017-09-26T12:49:49.103Z,14.73
2017-09-26T12:52:16.615Z,32.03
2017-09-26T12:54:44.913Z,25.40
2017-09-26T12:57:12.412Z,18.60
2017-09-26T12:59:39.940Z,15.83
2017-09-26T13:02:07.443Z,18.33
2017-09-26T13:04:34.959Z,13.67
2017-09-26T13:07:02.680Z,16.83
2017-09-26T13:09:30.205Z,16.80
2017-09-26T13:11:57.697Z,17.50
2017-09-26T13:14:30.992Z,17.67
2017-09-26T13:16:58.481Z,18.80
2017-09-26T13:19:26.007Z,17.23
2017-09-26T13:21:53.515Z,17.30
2017-09-26T13:24:21.037Z,18.20
2017-09-26T13:26:49.930Z,16.63
2017-09-26T13:29:18.266Z,16.17
2017-09-26T13:31:45.772Z,14.53
2017-09-26T13:34:14.109Z,14.73
2017-09-26T13:36:41.625Z,15.37
2017-09-26T13:39:09.170Z,16.30
2017-09-26T13:41:36.726Z,14.40
2017-09-26T13:44:05.012Z,13.90
2017-09-26T13:46:33.281Z,12.90
2017-09-26T13:49:01.581Z,14.00
2017-09-26T13:51:29.091Z,12.90
2017-09-26T13:53:59.868Z,13.40
2017-09-26T13:56:27.385Z,16.43
2017-09-26T13:58:54.904Z,13.90
2017-09-26T14:01:22.437Z,14.53
2017-09-26T14:03:50.741Z,14.23
2017-09-26T14:06:18.252Z,13.33
2017-09-26T14:08:46.347Z,14.50
2017-09-26T14:11:13.900Z,13.43
2017-09-26T14:13:41.434Z,14.30
2017-09-26T14:16:08.960Z,12.70
2017-09-26T14:18:36.941Z,12.70
2017-09-26T14:21:04.461Z,13.50
2017-09-26T14:23:32.760Z,12.50
2017-09-26T14:26:00.269Z,12.40
2017-09-26T14:28:27.799Z,12.83
2017-09-26T14:30:55.322Z,11.67
2017-09-26T14:33:23.670Z,12.20
2017-09-26T14:35:51.197Z,13.00
2017-09-26T14:38:18.704Z,12.67
2017-09-26T14:40:46.233Z,14.47
2017-09-26T14:43:13.757Z,14.43
2017-09-26T14:45:41.280Z,10.13
2017-09-26T14:48:08.788Z,12.53
2017-09-26T14:50:36.372Z,14.70
2017-09-26T14:53:03.889Z,16.47
2017-09-26T14:55:31.432Z,18.20
2017-09-26T14:57:59.704Z,16.70
2017-09-26T15:00:27.221Z,16.67
2017-09-26T15:02:54.766Z,16.83
2017-09-26T15:05:22.322Z,17.10
2017-09-26T15:07:49.845Z,19.90
2017-09-26T15:10:18.161Z,20.80
2017-09-26T15:12:45.685Z,20.27
2017-09-26T15:15:13.995Z,21.67
2017-09-26T15:17:42.293Z,20.67
2017-09-26T15:20:09.841Z,22.60
2017-09-26T15:22:37.374Z,25.40
2017-09-26T15:25:04.904Z,23.40
2017-09-26T15:27:32.442Z,25.30
2017-09-26T15:29:59.999Z,25.77
2017-09-26T15:32:27.507Z,27.07
2017-09-26T15:34:55.047Z,27.03
2017-09-26T15:37:22.630Z,27.90
2017-09-26T15:39:50.224Z,27.50
2017-09-26T15:42:17.837Z,28.10
2017-09-26T15:44:46.183Z,28.30
2017-09-26T15:47:13.761Z,25.60
2017-09-26T15:49:41.300Z,24.50
2017-09-26T15:52:08.883Z,25.43
2017-09-26T15:54:46.686Z,29.47
2017-09-26T15:57:14.326Z,27.57
2017-09-26T15:59:41.893Z,26.00
2017-09-26T16:02:09.535Z,28.13
2017-09-26T16:04:37.069Z,27.37
2017-09-26T16:07:04.635Z,24.50
2017-09-26T16:09:32.272Z,22.97
2017-09-26T16:11:59.877Z,18.00
2017-09-26T16:14:27.437Z,13.17
2017-09-26T16:16:55.033Z,15.07
2017-09-26T16:19:23.412Z,11.63
2017-09-26T16:21:51.002Z,9.97
2017-09-26T16:24:19.317Z,7.53
2017-09-26T16:26:46.938Z,7.47
2017-09-26T16:29:15.273Z,6.97
2017-09-26T16:31:42.868Z,8.73
2017-09-26T16:34:12.329Z,7.80
2017-09-26T16:36:39.924Z,8.03
2017-09-26T16:39:07.572Z,8.17
2017-09-26T16:41:35.261Z,7.30
2017-09-26T16:44:04.094Z,7.13
2017-09-26T16:46:31.681Z,7.10
2017-09-26T16:48:59.237Z,8.73
2017-09-26T16:51:26.862Z,7.90
2017-09-26T16:53:56.396Z,7.70
2017-09-26T16:56:23.983Z,8.10
2017-09-26T16:58:55.281Z,9.40
2017-09-26T17:01:23.711Z,11.40
2017-09-26T17:03:51.364Z,12.30
2017-09-26T17:06:19.010Z,13.23
2017-09-26T17:08:48.055Z,11.37
2017-09-26T17:11:15.742Z,11.93
2017-09-26T17:13:43.370Z,10.30
2017-09-26T17:16:11.694Z,11.70
2017-09-26T17:18:39.317Z,11.60
2017-09-26T17:21:06.865Z,12.20
2017-09-26T17:23:34.441Z,12.00
2017-09-26T17:26:02.019Z,11.33
2017-09-26T17:28:30.361Z,12.63
2017-09-26T17:30:57.946Z,11.70
2017-09-26T17:33:25.525Z,11.20
2017-09-26T17:35:53.094Z,11.93
2017-09-26T17:38:20.626Z,12.07
2017-09-26T17:40:48.229Z,11.80
2017-09-26T17:43:15.805Z,11.77
2017-09-26T17:45:43.501Z,11.93
2017-09-26T17:48:11.060Z,11.70
2017-09-26T17:50:38.662Z,13.13
2017-09-26T17:53:06.245Z,12.60
2017-09-26T17:55:33.834Z,12.80
2017-09-26T17:58:01.389Z,13.53
2017-09-26T18:00:29.758Z,13.70
2017-09-26T18:02:57.372Z,14.53
2017-09-26T18:05:25.006Z,13.07
2017-09-26T18:07:52.631Z,13.83
2017-09-26T18:10:20.283Z,11.97
2017-09-26T18:12:47.857Z,13.13
2017-09-26T18:15:15.434Z,13.10
2017-09-26T18:17:43.125Z,12.10
2017-09-26T18:20:11.458Z,12.93
2017-09-26T18:22:39.113Z,12.43
2017-09-26T18:25:08.176Z,10.90
2017-09-26T18:27:37.803Z,11.97
2017-09-26T18:30:05.439Z,11.43
2017-09-26T18:32:33.812Z,12.10
2017-09-26T18:35:01.411Z,12.13
2017-09-26T18:37:29.531Z,9.40
2017-09-26T18:39:57.163Z,11.60
2017-09-26T18:42:24.759Z,10.20
2017-09-26T18:44:52.360Z,10.80
2017-09-26T18:47:19.937Z,10.33
2017-09-26T18:49:47.531Z,10.67
2017-09-26T18:52:15.157Z,10.50
2017-09-26T18:54:42.801Z,11.87
2017-09-26T18:57:11.173Z,10.67
2017-09-26T18:59:38.776Z,11.40
2017-09-26T19:02:06.385Z,12.60
2017-09-26T19:04:36.650Z,12.53
2017-09-26T19:07:04.287Z,13.63
2017-09-26T19:09:31.959Z,13.97
2017-09-26T19:11:59.538Z,14.17
2017-09-26T19:14:27.172Z,13.93
2017-09-26T19:16:56.694Z,13.00
2017-09-26T19:19:24.296Z,13.73
2017-09-26T19:21:51.955Z,15.77
2017-09-26T19:24:19.502Z,14.90
2017-09-26T19:26:49.002Z,16.50
2017-09-26T19:29:16.715Z,15.30
2017-09-26T19:31:49.394Z,14.40
2017-09-26T19:34:16.986Z,14.63
2017-09-26T19:36:44.581Z,14.27
2017-09-26T19:39:12.181Z,15.53
2017-09-26T19:41:39.794Z,14.10
2017-09-26T19:44:07.395Z,15.40
2017-09-26T19:46:35.754Z,15.70
2017-09-26T19:49:03.324Z,14.50
2017-09-26T19:51:31.945Z,14.43
2017-09-26T19:53:59.490Z,15.80
2017-09-26T19:56:27.879Z,15.20
2017-09-26T19:58:56.191Z,14.63
2017-09-26T20:01:23.832Z,14.40
2017-09-26T20:03:52.210Z,13.53
2017-09-26T20:06:20.576Z,12.57
2017-09-26T20:08:49.035Z,12.60
2017-09-26T20:11:16.654Z,13.60
2017-09-26T20:13:44.331Z,13.70
2017-09-26T20:16:12.019Z,13.53
2017-09-26T20:18:39.663Z,13.97
2017-09-26T20:21:07.312Z,13.00
2017-09-26T20:23:34.940Z,12.63
2017-09-26T20:26:03.324Z,13.20
2017-09-26T20:28:31.738Z,14.13
2017-09-26T20:30:59.368Z,13.13
2017-09-26T20:33:27.097Z,14.87
2017-09-26T20:35:54.693Z,13.67
2017-09-26T20:38:22.994Z,13.13
2017-09-26T20:40:50.559Z,13.87
2017-09-26T20:43:18.150Z,12.90
2017-09-26T20:45:45.707Z,13.63
2017-09-26T20:48:13.264Z,13.87
2017-09-26T20:50:40.865Z,15.00
2017-09-26T20:53:09.257Z,16.20
2017-09-26T20:55:36.869Z,15.63
2017-09-26T20:58:04.515Z,16.37
2017-09-26T21:00:32.106Z,16.10
2017-09-26T21:02:59.737Z,15.17
2017-09-26T21:05:27.347Z,15.67
2017-09-26T21:07:55.728Z,15.50
2017-09-26T21:10:23.349Z,14.10
2017-09-26T21:12:50.926Z,14.80
2017-09-26T21:15:18.605Z,13.00
2017-09-26T21:17:46.946Z,14.40
2017-09-26T21:20:14.599Z,14.43
2017-09-26T21:22:42.212Z,13.90
2017-09-26T21:25:09.806Z,14.80
2017-09-26T21:27:37.403Z,14.30
2017-09-26T21:30:05.036Z,14.40
2017-09-26T21:32:32.619Z,13.60
2017-09-26T21:35:00.287Z,13.67
2017-09-26T21:37:27.864Z,12.50
2017-09-26T21:39:55.535Z,13.30
2017-09-26T21:42:23.134Z,11.73
2017-09-26T21:44:50.750Z,12.20
2017-09-26T21:47:18.396Z,13.00
2017-09-26T21:49:46.093Z,12.67
2017-09-26T21:52:13.725Z,13.47
2017-09-26T21:54:41.339Z,11.80
2017-09-26T21:57:08.937Z,11.20
2017-09-26T21:59:36.518Z,11.03
2017-09-26T22:02:13.398Z,11.10
2017-09-26T22:04:41.813Z,11.23
2017-09-26T22:07:09.463Z,12.25
2017-09-26T22:09:37.968Z,10.90
2017-09-26T22:12:05.607Z,11.37
2017-09-26T22:14:33.968Z,11.18
2017-09-26T22:17:01.622Z,10.97
2017-09-26T22:19:29.222Z,12.40
2017-09-26T22:21:57.542Z,12.27
2017-09-26T22:24:25.148Z,11.43
2017-09-26T22:26:52.746Z,9.87
2017-09-26T22:29:20.290Z,8.52
2017-09-26T22:31:48.628Z,7.43
2017-09-26T22:34:16.193Z,7.60
2017-09-26T22:36:43.760Z,9.05
2017-09-26T22:39:11.282Z,9.73
2017-09-26T22:41:38.847Z,10.68
2017-09-26T22:44:06.374Z,11.35
2017-09-26T22:46:34.746Z,11.68
2017-09-26T22:49:02.308Z,13.33
2017-09-26T22:51:30.636Z,13.50
2017-09-26T22:53:58.958Z,13.30
2017-09-26T22:56:26.587Z,13.98
2017-09-26T22:58:54.147Z,13.70
2017-09-26T23:01:21.679Z,13.07
2017-09-26T23:03:49.255Z,12.60
2017-09-26T23:06:16.817Z,13.40
2017-09-26T23:08:44.366Z,13.70
2017-09-26T23:11:11.982Z,14.10
2017-09-26T23:13:40.356Z,11.90
2017-09-26T23:16:07.889Z,12.30
2017-09-26T23:18:35.537Z,13.90
2017-09-26T23:21:03.096Z,14.17
2017-09-26T23:23:30.701Z,12.73
2017-09-26T23:25:58.233Z,13.27
2017-09-26T23:28:25.794Z,13.02
2017-09-26T23:30:53.337Z,12.82
2017-09-26T23:33:20.969Z,12.60
2017-09-26T23:35:48.518Z,11.98
2017-09-26T23:38:16.837Z,11.55
2017-09-26T23:40:44.385Z,11.23
2017-09-26T23:43:12.700Z,11.53
2017-09-26T23:45:40.301Z,11.10
2017-09-26T23:48:08.622Z,11.85
2017-09-26T23:50:36.169Z,11.48
2017-09-26T23:53:03.721Z,10.48
2017-09-26T23:55:31.273Z,10.30
2017-09-26T23:57:58.831Z,10.80
